NCAR-RAP Real-Time Weather Data

Output produced by METARs form (10 April 2020  06:19 UTC)
found at http://weather.rap.ucar.edu/surface/
 
KOKC 100552Z 03008KT 10SM FEW200 SCT250 11/00 A3011 RMK AO2 SLP192 T01110000 10178 20111 402000111 51014
KOKC 100452Z 02008KT 10SM FEW200 SCT250 12/M01 A3010 RMK AO2 SLP187 T01221006
KOKC 100352Z 02007KT 10SM SCT200 BKN250 13/00 A3009 RMK AO2 SLP183 T01330000
KOKC 100252Z 02009KT 10SM SCT200 OVC250 14/M01 A3007 RMK AO2 SLP178 T01441011 53023
KOKC 100152Z 02010KT 10SM SCT200 OVC250 16/00 A3003 RMK AO2 SLP165 T01560000
KOKC 100052Z 03012KT 10SM BKN190 OVC250 17/M01 A3002 RMK AO2 SLP161 T01671006
KOKC 092352Z 04012KT 10SM BKN190 OVC250 18/01 A3000 RMK AO2 SLP153 T01780006 10200 20178 56004
KOKC 092252Z 02012KT 10SM OVC190 18/02 A3000 RMK AO2 SLP153 T01830017
KOKC 092152Z 04012KT 10SM BKN200 OVC250 19/03 A3000 RMK AO2 SLP152 T01890028
KOKC 092052Z 04011KT 10SM FEW170 SCT200 BKN250 19/03 A3001 RMK AO2 SLP155 T01940033 56023
KOKC 091952Z 04014KT 10SM BKN180 OVC250 19/03 A3003 RMK AO2 SLP159 T01940033
KOKC 091852Z 03011KT 10SM BKN180 OVC250 20/03 A3006 RMK AO2 SLP168 T02000033
KOKC 091752Z 03009KT 10SM BKN180 OVC250 18/04 A3008 RMK AO2 SLP177 T01830044 10183 20128 50007
KOKC 091652Z 06012KT 10SM BKN200 BKN250 18/03 A3009 RMK AO2 SLP180 T01780033
KOKC 091552Z 07012G18KT 10SM BKN200 BKN250 17/04 A3008 RMK AO2 SLP178 T01670039
KOKC 091452Z 04013G21KT 10SM BKN200 BKN250 14/05 A3006 RMK AO2 SLP170 T01440050 51027
KOKC 091352Z 04015G21KT 10SM BKN250 13/06 A3003 RMK AO2 SLP161 T01330056
KOKC 091252Z 04013KT 10SM BKN250 13/07 A3001 RMK AO2 SLP153 T01280072
KOKC 091152Z 05010KT 10SM BKN250 13/07 A2998 RMK AO2 SLP141 T01280067 10194 20128 53012
KOKC 091052Z 05011KT 10SM BKN250 14/07 A2996 RMK AO2 SLP133 T01440067
KOKC 090952Z 05014G20KT 10SM BKN250 16/07 A2994 RMK AO2 SLP124 T01560067
KOKC 090852Z 04011KT 10SM BKN250 17/07 A2994 RMK AO2 SLP124 T01670072 51006
KOKC 090752Z 05011KT 10SM BKN250 18/07 A2993 RMK AO2 SLP121 T01780067